Morforte De Lemos, Spain
Current Conditions -  °F | °C
As of 11:00 AM on Friday 28 Nov 2014 (Local Time) from LEST Reporting Station
Light Rain Light Rain  
Wind Chill: 46°   Ceiling: 1800
Heat Index: 46°   Visibility: 5mi
Dew Point: 46°   Wind: 2mph
Humidity: 100%   Direction: NA
Pressure: 28.94"   Gusts: NA
Location:  42.52°N, 7.5°W
Report Text: LEST 281000Z VRB02KT 8000 3500S -RA FEW002 SCT006 OVC018 08/08 Q0980 TEMPO 3000 RA
Loading
Personal Weather Stations






























Interactive Weather Map New forecast layout! Learn more

10-Day Weather Forecast

Advertisements
Track Severe Weather on mobile